Terminal Aerodrome Forecast
Issued by NWS Wilmington, OH

Current Version | Previous Version | Text Only | Print | Product List | Glossary On
Versions: 1 2 3 4 5 6 7 8 9 10 11 12 13 14 15 16 17 18 19 20
379
FTUS41 KILN 211729
TAFCMH
TAF
KCMH 211729Z 2118/2218 20007KT P6SM SCT035 BKN200
     FM212300 20006KT P6SM SCT035 OVC090
     FM220800 00000KT 5SM BR VCSH OVC025
     FM220900 00000KT 3SM BR VCSH OVC007
     FM221500 VRB03KT P6SM BKN007
     FM221700 20004KT P6SM BKN020=

USA.gov is the U.S. government's official web portal to all federal, state and local government web resources and services.